Time;durP1;ratioP1;P1;durP2;ratioP2;P2;SDS_P1;SDS_P2;PMS_P1;PMS_P2;Temp;Humidity;BMP_temperature;BMP_pressure;BME280_temperature;BME280_humidity;BME280_pressure;Samples;Min_cycle;Max_cycle;Signal;HPM_P1;HPM_P2
2022/07/10 00:02:19;;;;;;;4.40;1.30;;;;;;;15.12;61.26;99189.73;109410;1279;22403;-83
2022/07/10 00:04:57;;;;;;;4.60;1.20;;;;;;;15.16;61.47;99194.23;109228;1279;22316;-83
2022/07/10 00:07:43;;;;;;;4.60;1.40;;;;;;;15.16;61.41;99192.23;109136;1281;22167;-84
2022/07/10 00:10:28;;;;;;;3.50;1.30;;;;;;;15.13;61.42;99187.84;109209;1280;22241;-82
2022/07/10 00:13:14;;;;;;;4.10;1.00;;;;;;;15.12;61.46;99182.61;109068;1281;22477;-82
2022/07/10 00:15:58;;;;;;;2.50;0.90;;;;;;;15.14;61.55;99180.56;109207;1279;23102;-83
2022/07/10 00:18:28;;;;;;;3.30;1.10;;;;;;;15.17;61.54;99180.14;108969;1280;22354;-84
2022/07/10 00:21:03;;;;;;;5.30;1.20;;;;;;;15.16;61.73;99186.52;109398;1277;22108;-82
2022/07/10 00:23:49;;;;;;;4.70;1.30;;;;;;;15.11;61.73;99187.34;109056;1280;22489;-83
2022/07/10 00:26:19;;;;;;;4.30;1.40;;;;;;;15.03;62.05;99181.20;108809;1281;22430;-83
2022/07/10 00:28:57;;;;;;;3.40;1.20;;;;;;;14.98;61.89;99173.20;109403;1278;22336;-83
2022/07/10 00:31:29;;;;;;;4.30;1.10;;;;;;;14.94;61.91;99180.77;109006;1281;22231;-83
2022/07/10 00:34:06;;;;;;;4.20;1.50;;;;;;;14.90;62.21;99188.30;108824;1281;22168;-83
2022/07/10 00:37:16;;;;;;;6.10;1.60;;;;;;;14.87;62.98;99196.45;109199;1280;22368;-83
2022/07/10 00:39:51;;;;;;;4.10;1.30;;;;;;;14.81;62.73;99192.98;109047;1280;22498;-84
2022/07/10 00:42:30;;;;;;;2.40;0.90;;;;;;;14.77;62.50;99199.60;109210;1279;22428;-83
2022/07/10 00:45:16;;;;;;;4.10;1.40;;;;;;;14.72;62.67;99190.77;109047;1281;22174;-83
2022/07/10 00:47:56;;;;;;;3.40;1.00;;;;;;;14.72;62.72;99192.74;108817;1280;22466;-84
2022/07/10 00:50:35;;;;;;;4.90;1.50;;;;;;;14.71;63.01;99194.06;109418;1279;22241;-84
2022/07/10 00:53:03;;;;;;;4.10;1.30;;;;;;;14.72;63.03;99194.33;109042;1281;22604;-83
2022/07/10 00:55:45;;;;;;;6.50;1.50;;;;;;;14.76;63.04;99193.09;109214;1280;22604;-83
2022/07/10 00:58:30;;;;;;;4.50;1.60;;;;;;;14.76;63.13;99186.96;109215;1279;23153;-84
2022/07/10 01:01:17;;;;;;;6.40;1.60;;;;;;;14.81;62.97;99189.59;108968;1281;23188;-83
2022/07/10 01:04:13;;;;;;;;;;;;;;;;;;;;;
2022/07/10 01:06:56;;;;;;;5.60;1.50;;;;;;;14.77;63.25;99187.45;109078;1280;23138;-84
2022/07/10 01:09:39;;;;;;;5.20;1.50;;;;;;;14.71;63.33;99184.55;109063;1281;22471;-84
2022/07/10 01:12:32;;;;;;;4.20;1.20;;;;;;;14.69;63.35;99190.48;109110;1279;23180;-83
2022/07/10 01:15:12;;;;;;;4.90;1.40;;;;;;;14.63;63.46;99185.05;109431;1279;23357;-84
2022/07/10 01:17:53;;;;;;;6.00;1.30;;;;;;;14.61;63.55;99186.33;108832;1281;22247;-84
2022/07/10 01:21:26;;;;;;;;;;;;;;;;;;;;;
2022/07/10 01:24:54;;;;;;;;;;;;;;;;;;;;;
2022/07/10 01:28:20;;;;;;;;;;;;;;;;;;;;;
2022/07/10 01:31:24;;;;;;;4.40;1.30;;;;;;;14.51;63.84;99186.70;109414;1279;22570;-84
2022/07/10 01:34:09;;;;;;;5.60;1.60;;;;;;;14.47;63.82;99184.99;109125;1279;22347;-84
2022/07/10 01:37:28;;;;;;;6.00;1.80;;;;;;;14.41;64.02;99183.03;109148;1279;23439;-84
2022/07/10 01:40:27;;;;;;;6.10;1.50;;;;;;;14.34;63.94;99177.14;109040;1280;22498;-84
2022/07/10 01:43:23;;;;;;;6.80;1.50;;;;;;;14.32;64.12;99181.05;109402;1279;22502;-83
2022/07/10 01:46:20;;;;;;;4.60;1.40;;;;;;;14.28;64.21;99180.52;108825;1281;22541;-83
2022/07/10 01:49:31;;;;;;;5.90;1.60;;;;;;;14.24;64.21;99181.27;108869;1281;22374;-84
2022/07/10 01:52:50;;;;;;;;;;;;;;;;;;;;;
2022/07/10 01:56:41;;;;;;;;;;;;;;;;;;;;;
2022/07/10 02:06:50;;;;;;;4.90;1.30;;;;;;;14.16;64.46;99176.52;108033;1290;22511;-83
2022/07/10 02:10:27;;;;;;;4.00;1.20;;;;;;;14.12;64.51;99177.63;108059;1290;22479;-83
2022/07/10 02:13:24;;;;;;;;;;;;;;;;;;;;;
2022/07/10 02:16:35;;;;;;;;;;;;;;;;;;;;;
2022/07/10 02:20:04;;;;;;;6.10;1.40;;;;;;;13.90;64.64;99178.77;108077;1290;22495;-82
2022/07/10 02:23:06;;;;;;;;;;;;;;;;;;;;;
2022/07/10 02:26:23;;;;;;;4.80;1.20;;;;;;;13.84;64.72;99176.92;108045;1290;22408;-83
2022/07/10 02:29:23;;;;;;;5.20;1.50;;;;;;;13.80;64.68;99177.96;108191;1287;22469;-84
2022/07/10 02:33:36;;;;;;;6.00;1.30;;;;;;;13.74;64.78;99171.66;108246;1287;22600;-84
2022/07/10 02:36:26;;;;;;;;;;;;;;;;;;;;;
2022/07/10 02:44:13;;;;;;;;;;;;;;;;;;;;;
2022/07/10 02:47:19;;;;;;;4.60;1.20;;;;;;;13.63;65.18;99171.31;108663;1282;23087;-82
2022/07/10 02:50:53;;;;;;;9.20;1.30;;;;;;;13.67;65.24;99168.48;108630;1284;23252;-83
2022/07/10 02:53:45;;;;;;;;;;;;;;;;;;;;;
2022/07/10 02:56:22;;;;;;;3.80;1.00;;;;;;;13.73;65.24;99162.95;107968;1291;22540;-84
2022/07/10 02:58:59;;;;;;;5.30;1.10;;;;;;;13.72;65.26;99163.64;107663;1290;23254;-83
2022/07/10 03:01:41;;;;;;;5.80;1.10;;;;;;;13.68;65.22;99165.23;107909;1290;23032;-88
2022/07/10 03:04:21;;;;;;;5.10;1.00;;;;;;;13.67;65.23;99172.30;107972;1290;22723;-83
2022/07/10 03:07:03;;;;;;;6.50;1.10;;;;;;;13.64;65.10;99170.75;107935;1290;22427;-83
2022/07/10 03:09:44;;;;;;;7.40;1.30;;;;;;;13.62;65.21;99168.92;107910;1290;22400;-83
2022/07/10 03:12:22;;;;;;;4.70;1.20;;;;;;;13.59;65.42;99171.10;107981;1287;22501;-84
2022/07/10 03:14:52;;;;;;;4.60;1.10;;;;;;;13.58;65.40;99174.62;108386;1287;22419;-83
2022/07/10 03:17:38;;;;;;;6.30;0.90;;;;;;;13.60;65.41;99173.21;108322;1286;22463;-84
2022/07/10 03:20:15;;;;;;;7.80;1.50;;;;;;;13.63;65.52;99174.05;108472;1286;23207;-83
2022/07/10 03:22:57;;;;;;;7.10;1.60;;;;;;;13.66;65.57;99175.17;108352;1287;22497;-86
2022/07/10 03:25:33;;;;;;;7.00;1.30;;;;;;;13.67;65.56;99173.48;108224;1287;22938;-84
2022/07/10 03:28:05;;;;;;;5.90;1.40;;;;;;;13.65;65.61;99176.58;108500;1286;22479;-84
2022/07/10 03:30:35;;;;;;;5.70;1.20;;;;;;;13.64;65.68;99174.65;108631;1279;23193;-83
2022/07/10 03:33:05;;;;;;;6.60;1.40;;;;;;;13.62;65.50;99172.20;109221;1279;22553;-84
2022/07/10 03:35:50;;;;;;;;;;;;;;;;;;;;;
2022/07/10 03:38:33;;;;;;;8.00;1.50;;;;;;;13.60;65.59;99172.52;109253;1279;22336;-84
2022/07/10 03:41:16;;;;;;;6.20;1.10;;;;;;;13.59;65.63;99177.37;109072;1279;22514;-86
2022/07/10 03:44:10;;;;;;;;;;;;;;;;;;;;;
2022/07/10 03:46:51;;;;;;;6.10;1.30;;;;;;;13.66;65.52;99173.45;109495;1276;23051;-82
2022/07/10 03:49:28;;;;;;;4.80;1.00;;;;;;;13.75;65.46;99173.20;109197;1279;23291;-83
2022/07/10 03:52:02;;;;;;;5.10;1.00;;;;;;;13.81;65.35;99182.89;109227;1279;23282;-84
2022/07/10 03:54:35;;;;;;;5.70;1.40;;;;;;;13.83;65.25;99182.77;109112;1278;23218;-83
2022/07/10 03:59:58;;;;;;;7.80;0.90;;;;;;;13.94;65.30;99175.17;109410;1278;22451;-83
2022/07/10 04:02:27;;;;;;;5.70;0.80;;;;;;;13.94;65.17;99178.08;109280;1276;22500;-86
2022/07/10 04:05:00;;;;;;;7.30;1.20;;;;;;;13.91;65.00;99178.17;109064;1279;22640;-83
2022/07/10 04:07:36;;;;;;;7.90;1.10;;;;;;;13.93;65.05;99180.13;109270;1278;22445;-87
2022/07/10 04:10:13;;;;;;;4.50;0.90;;;;;;;13.91;64.95;99170.80;109165;1278;22292;-84
2022/07/10 04:12:48;;;;;;;5.10;0.90;;;;;;;13.86;64.93;99173.27;109291;1279;22438;-84
2022/07/10 04:15:25;;;;;;;8.40;1.00;;;;;;;13.82;64.82;99179.83;109044;1279;22546;-84
2022/07/10 04:17:55;;;;;;;5.80;0.80;;;;;;;13.77;64.81;99179.27;109105;1279;22436;-83
2022/07/10 04:20:25;;;;;;;4.10;0.80;;;;;;;13.77;64.83;99177.38;109149;1279;22418;-82
2022/07/10 04:23:00;;;;;;;4.40;0.90;;;;;;;13.72;64.74;99176.81;109142;1279;22383;-83
2022/07/10 04:25:32;;;;;;;3.50;0.70;;;;;;;13.69;64.68;99172.30;109065;1279;22476;-84
2022/07/10 04:27:59;;;;;;;5.50;0.80;;;;;;;13.63;64.63;99172.09;108989;1281;22447;-81
2022/07/10 04:30:32;;;;;;;3.70;0.70;;;;;;;13.58;64.64;99170.73;109056;1279;22372;-83
2022/07/10 04:33:05;;;;;;;7.10;1.00;;;;;;;13.57;64.58;99171.29;109038;1279;22580;-82
2022/07/10 04:35:34;;;;;;;5.70;0.80;;;;;;;13.59;64.55;99171.63;109396;1279;22329;-82
2022/07/10 04:38:07;;;;;;;6.40;1.00;;;;;;;13.72;64.65;99172.17;109032;1279;23199;-82
2022/07/10 04:40:37;;;;;;;5.80;0.80;;;;;;;13.89;64.49;99174.39;109187;1279;22344;-83
2022/07/10 04:43:12;;;;;;;5.20;0.70;;;;;;;14.01;64.30;99175.63;109148;1279;22488;-82
2022/07/10 04:45:42;;;;;;;3.10;0.70;;;;;;;14.12;64.19;99175.95;109160;1278;22335;-84
2022/07/10 04:48:20;;;;;;;5.80;0.70;;;;;;;14.16;64.08;99172.25;109021;1279;22433;-84
2022/07/10 04:50:55;;;;;;;4.10;0.70;;;;;;;14.21;64.07;99171.13;109284;1278;22218;-83
2022/07/10 04:53:31;;;;;;;6.40;0.80;;;;;;;14.33;64.12;99172.44;109267;1279;23144;-84
2022/07/10 04:56:08;;;;;;;7.20;1.10;;;;;;;14.44;64.30;99172.55;109202;1278;23293;-83
2022/07/10 04:58:52;;;;;;;;;;;;;;;;;;;;;
2022/07/10 05:01:36;;;;;;;7.90;0.70;;;;;;;14.86;63.91;99172.16;109195;1278;22527;-83
2022/07/10 05:04:10;;;;;;;6.30;0.70;;;;;;;14.90;63.78;99169.09;109414;1279;22372;-83
2022/07/10 05:06:44;;;;;;;5.20;0.70;;;;;;;14.82;63.58;99174.58;108989;1279;22417;-83
2022/07/10 05:09:14;;;;;;;3.50;0.70;;;;;;;14.72;63.45;99181.63;109401;1278;22554;-84
2022/07/10 05:11:55;;;;;;;5.90;0.80;;;;;;;14.57;63.63;99186.27;109200;1277;23092;-83
2022/07/10 05:14:25;;;;;;;5.70;0.70;;;;;;;14.49;63.48;99182.56;109058;1279;22162;-84
2022/07/10 05:16:58;;;;;;;8.80;0.90;;;;;;;14.47;63.53;99189.55;109038;1279;22405;-83
2022/07/10 05:19:33;;;;;;;8.30;0.90;;;;;;;14.41;63.59;99182.29;108858;1279;22452;-84
2022/07/10 05:22:09;;;;;;;4.50;0.80;;;;;;;14.46;63.71;99185.42;109057;1279;22409;-83
2022/07/10 05:24:46;;;;;;;5.00;0.50;;;;;;;14.57;63.73;99182.17;109528;1277;22972;-84
2022/07/10 05:27:26;;;;;;;2.70;0.50;;;;;;;14.70;63.33;99185.75;109261;1278;22187;-87
2022/07/10 05:29:58;;;;;;;5.10;0.50;;;;;;;14.66;62.91;99179.78;109310;1280;23124;-83
2022/07/10 05:32:33;;;;;;;6.70;0.90;;;;;;;14.61;63.15;99181.90;109151;1280;22383;-84
2022/07/10 05:35:27;;;;;;;10.90;0.90;;;;;;;14.57;63.21;99180.36;109286;1279;22503;-84
2022/07/10 05:38:13;;;;;;;5.90;0.70;;;;;;;14.60;63.20;99182.86;109297;1279;22336;-83
2022/07/10 05:41:08;;;;;;;6.40;0.80;;;;;;;14.61;63.13;99182.93;109427;1278;22412;-83
2022/07/10 05:44:21;;;;;;;;;;;;;;;;;;;;;
2022/07/10 05:46:58;;;;;;;7.30;0.70;;;;;;;14.76;63.37;99185.95;109386;1279;22455;-81
2022/07/10 05:50:58;;;;;;;5.70;0.80;;;;;;;14.80;63.24;99184.64;109302;1279;22476;-84
2022/07/10 05:53:49;;;;;;;;;;;;;;;;;;;;;
2022/07/10 05:56:44;;;;;;;;;;;;;;;;;;;;;
2022/07/10 05:59:29;;;;;;;;;;;;;;;;;;;;;
2022/07/10 06:02:31;;;;;;;5.20;0.60;;;;;;;14.83;62.63;99189.09;109404;1279;23185;-83
2022/07/10 06:05:08;;;;;;;7.00;0.90;;;;;;;14.89;62.79;99186.91;109059;1280;22269;-83
2022/07/10 06:08:08;;;;;;;;;;;;;;;;;;;;;
2022/07/10 06:11:37;;;;;;;;;;;;;;;;;;;;;
2022/07/10 06:14:50;;;;;;;;;;;;;;;;;;;;;
2022/07/10 06:17:58;;;;;;;6.60;1.00;;;;;;;15.45;62.37;99172.06;109577;1277;22199;-83
2022/07/10 06:21:37;;;;;;;7.60;0.90;;;;;;;15.42;62.71;99175.25;109463;1277;22432;-83
2022/07/10 06:25:29;;;;;;;8.10;1.10;;;;;;;15.32;62.31;99180.56;108577;1286;22666;-83
2022/07/10 06:28:16;;;;;;;7.20;0.60;;;;;;;15.19;62.56;99181.20;107536;1294;22640;-83
2022/07/10 06:31:22;;;;;;;4.70;0.80;;;;;;;15.13;62.43;99184.08;107575;1294;22623;-83
2022/07/10 06:35:06;;;;;;;;;;;;;;;;;;;;;
2022/07/10 06:37:46;;;;;;;8.90;0.90;;;;;;;14.95;62.65;99174.09;107545;1293;22443;-83
2022/07/10 06:40:20;;;;;;;5.00;0.70;;;;;;;14.92;62.72;99175.35;107461;1294;22522;-83
2022/07/10 06:42:47;;;;;;;6.50;0.70;;;;;;;14.96;62.64;99171.48;107548;1293;22537;-83
2022/07/10 06:45:21;;;;;;;6.10;0.80;;;;;;;14.96;62.60;99167.81;107447;1293;22562;-83
2022/07/10 06:47:57;;;;;;;6.00;0.90;;;;;;;15.07;62.87;99169.06;107444;1293;22414;-83
2022/07/10 06:50:31;;;;;;;3.20;0.50;;;;;;;15.19;62.63;99169.05;107631;1293;22404;-84
2022/07/10 06:53:04;;;;;;;7.60;1.00;;;;;;;15.23;62.45;99171.34;107475;1293;22504;-84
2022/07/10 06:55:40;;;;;;;4.70;0.80;;;;;;;15.22;62.47;99172.55;107374;1293;22452;-86
2022/07/10 06:58:13;;;;;;;5.70;0.90;;;;;;;15.11;61.95;99175.98;107506;1293;22358;-84
2022/07/10 07:00:45;;;;;;;5.10;0.80;;;;;;;14.98;61.87;99174.50;107684;1288;23082;-85
2022/07/10 07:03:23;;;;;;;9.30;1.10;;;;;;;14.86;61.97;99181.95;108230;1289;22964;-84
2022/07/10 07:06:05;;;;;;;5.20;0.60;;;;;;;14.77;62.02;99180.99;108896;1281;23063;-84
2022/07/10 07:08:36;;;;;;;7.20;1.00;;;;;;;14.72;62.03;99175.72;109359;1277;22240;-83
2022/07/10 07:11:06;;;;;;;6.40;0.70;;;;;;;14.78;62.10;99183.58;109196;1278;22377;-83
2022/07/10 07:13:38;;;;;;;5.40;0.90;;;;;;;14.88;62.06;99173.92;109141;1281;22430;-85
2022/07/10 07:16:13;;;;;;;7.10;0.70;;;;;;;15.01;62.03;99175.53;109011;1280;22376;-85
2022/07/10 07:18:47;;;;;;;5.60;0.70;;;;;;;15.09;61.81;99171.34;109015;1280;22334;-83
2022/07/10 07:24:26;;;;;;;5.70;0.60;;;;;;;15.31;61.82;99173.13;109184;1279;22384;-86
2022/07/10 07:27:02;;;;;;;4.70;0.60;;;;;;;15.45;61.73;99171.70;109368;1279;22163;-83
2022/07/10 07:29:31;;;;;;;3.60;0.70;;;;;;;15.58;61.57;99171.80;109148;1279;23672;-83
2022/07/10 07:32:07;;;;;;;5.80;0.70;;;;;;;15.68;61.62;99164.98;109186;1277;22496;-85
2022/07/10 07:34:44;;;;;;;4.60;0.60;;;;;;;15.79;61.35;99169.01;108988;1279;23155;-83
2022/07/10 07:37:21;;;;;;;4.10;0.60;;;;;;;15.85;60.86;99165.89;109366;1279;22567;-84
2022/07/10 07:39:50;;;;;;;5.30;0.80;;;;;;;15.90;61.33;99165.12;109004;1279;22140;-84
2022/07/10 07:42:23;;;;;;;3.50;0.50;;;;;;;16.01;61.19;99162.13;109160;1279;23001;-85
2022/07/10 07:44:57;;;;;;;5.00;0.60;;;;;;;16.12;61.54;99161.79;109380;1279;22713;-85
2022/07/10 07:47:28;;;;;;;4.60;0.60;;;;;;;16.18;61.10;99159.80;109370;1277;23273;-85
2022/07/10 07:50:07;;;;;;;4.20;0.60;;;;;;;16.01;60.60;99160.33;109215;1279;23282;-85
2022/07/10 07:52:38;;;;;;;3.50;0.40;;;;;;;15.78;60.85;99158.49;109161;1279;22403;-84
2022/07/10 07:55:11;;;;;;;3.70;0.60;;;;;;;15.61;61.17;99159.33;109011;1279;22409;-87
2022/07/10 07:57:43;;;;;;;6.10;0.60;;;;;;;15.57;61.15;99160.58;109249;1279;22414;-83
2022/07/10 08:00:22;;;;;;;3.80;0.60;;;;;;;15.40;61.08;99159.55;109027;1279;22516;-84
2022/07/10 08:03:38;;;;;;;6.10;0.60;;;;;;;15.34;60.86;99160.63;108974;1277;22467;-83
2022/07/10 08:05:46;;;;;;;2.80;0.40;;;;;;;15.31;61.19;99166.99;109292;1277;22473;-83
2022/07/10 08:08:16;;;;;;;5.50;0.70;;;;;;;15.46;61.43;99164.81;109206;1277;23133;-84
2022/07/10 08:10:43;;;;;;;3.00;0.50;;;;;;;15.64;61.24;99165.10;109316;1277;22425;-83
2022/07/10 08:13:13;;;;;;;4.40;0.60;;;;;;;15.85;61.33;99165.52;109382;1277;22270;-85
2022/07/10 08:15:49;;;;;;;5.20;0.90;;;;;;;15.91;60.35;99164.60;109530;1277;22483;-85
2022/07/10 08:18:18;;;;;;;5.60;0.90;;;;;;;15.78;60.15;99163.70;109335;1277;22391;-85
2022/07/10 08:20:56;;;;;;;4.40;0.50;;;;;;;15.82;60.63;99161.13;109315;1277;23285;-84
2022/07/10 08:23:26;;;;;;;4.10;0.60;;;;;;;16.00;60.88;99158.42;109597;1277;22394;-85
2022/07/10 08:25:55;;;;;;;4.20;0.50;;;;;;;16.25;60.77;99149.64;109592;1277;22292;-83
2022/07/10 08:28:22;;;;;;;5.10;0.60;;;;;;;16.26;60.30;99144.14;109211;1277;22473;-85
2022/07/10 08:30:56;;;;;;;4.90;0.50;;;;;;;16.64;60.63;99155.56;109291;1277;22391;-88
2022/07/10 08:33:31;;;;;;;4.20;0.70;;;;;;;16.90;59.39;99158.73;109623;1277;23059;-86
2022/07/10 08:36:05;;;;;;;4.90;0.60;;;;;;;17.21;59.52;99158.37;109210;1277;23309;-85
2022/07/10 08:38:40;;;;;;;4.50;0.60;;;;;;;17.47;58.92;99153.84;109406;1277;22348;-86
2022/07/10 08:41:13;;;;;;;2.00;0.40;;;;;;;17.58;58.31;99151.63;109370;1277;22435;-87
2022/07/10 08:44:10;;;;;;;4.70;0.90;;;;;;;17.38;58.73;99147.90;109258;1277;22537;-84
2022/07/10 08:46:40;;;;;;;3.30;0.50;;;;;;;17.32;59.84;99153.66;109224;1277;22406;-85
2022/07/10 08:49:17;;;;;;;3.40;0.50;;;;;;;17.29;59.44;99150.27;109602;1277;22336;-84
2022/07/10 08:52:35;;;;;;;2.90;0.50;;;;;;;17.30;59.76;99148.48;109052;1277;22391;-85
2022/07/10 08:55:05;;;;;;;3.50;0.60;;;;;;;17.23;58.96;99150.25;109501;1277;23101;-85
2022/07/10 08:57:46;;;;;;;4.50;0.60;;;;;;;16.68;58.76;99151.79;109365;1277;22389;-84
2022/07/10 09:00:21;;;;;;;6.40;0.80;;;;;;;16.28;59.74;99153.77;109362;1279;23163;-86
2022/07/10 09:02:59;;;;;;;6.40;1.40;;;;;;;15.98;59.72;99164.70;109199;1277;22791;-86
2022/07/10 09:05:29;;;;;;;3.90;0.70;;;;;;;15.65;59.97;99161.27;109243;1277;22418;-89
2022/07/10 09:08:22;;;;;;;3.50;0.60;;;;;;;15.36;59.87;99163.73;109061;1277;22469;-87
2022/07/10 09:11:21;;;;;;;3.90;0.50;;;;;;;15.15;60.41;99161.11;109606;1277;22462;-88
2022/07/10 09:14:17;;;;;;;7.00;0.70;;;;;;;15.29;60.62;99168.66;109379;1277;23179;-83
2022/07/10 09:17:06;;;;;;;;;;;;;;;;;;;;;
2022/07/10 09:19:40;;;;;;;3.30;0.70;;;;;;;15.86;60.21;99158.95;109291;1279;22298;-86
2022/07/10 09:22:32;;;;;;;3.60;0.60;;;;;;;16.10;59.96;99163.77;109382;1280;23037;-91
2022/07/10 09:25:21;;;;;;;4.40;0.60;;;;;;;16.27;59.37;99167.71;109557;1277;22414;-91
2022/07/10 09:28:30;;;;;;;;;;;;;;;;;;;;;
2022/07/10 09:31:41;;;;;;;2.70;0.50;;;;;;;16.11;59.55;99162.27;109418;1277;23138;-87
2022/07/10 09:37:37;;;;;;;4.20;0.60;;;;;;;17.15;60.29;99151.25;109151;1278;22397;-91
2022/07/10 09:40:20;;;;;;;;;;;;;;;;;;;;;
2022/07/10 09:43:00;;;;;;;2.50;0.50;;;;;;;18.08;58.46;99145.35;108772;1280;22606;-90
2022/07/10 09:45:27;;;;;;;3.30;0.60;;;;;;;17.99;58.11;99146.66;109346;1278;22892;-88
2022/07/10 09:48:58;;;;;;;4.70;0.60;;;;;;;17.67;58.91;99154.70;109210;1281;22134;-93
2022/07/10 09:51:24;;;;;;;8.90;0.70;;;;;;;17.37;59.19;99154.44;104705;1283;5379064;-87
2022/07/10 09:53:51;;;;;;;3.90;0.60;;;;;;;17.45;59.41;99156.20;108943;1269;22631;-90
2022/07/10 09:57:23;;;;;;;5.00;0.70;;;;;;;17.63;59.11;99149.40;109725;1276;22380;-92
2022/07/10 09:59:39;;;;;;;3.10;0.70;;;;;;;18.09;59.14;99149.10;109350;1277;23152;-89
2022/07/10 10:02:17;;;;;;;5.70;0.60;;;;;;;18.46;58.63;99147.05;109162;1279;22190;-87
2022/07/10 10:05:01;;;;;;;3.00;0.60;;;;;;;18.67;58.81;99157.48;109002;1281;22594;-89
2022/07/10 10:07:52;;;;;;;5.60;0.70;;;;;;;18.21;57.30;99167.23;109150;1280;23185;-84
2022/07/10 10:10:35;;;;;;;2.90;0.70;;;;;;;17.18;56.73;99184.39;108831;1281;22511;-84
2022/07/10 10:13:33;;;;;;;4.10;0.50;;;;;;;16.44;57.76;99186.99;108970;1281;22416;-86
2022/07/10 10:16:48;;;;;;;3.00;0.40;;;;;;;15.94;57.91;99189.33;108711;1282;22516;-83
2022/07/10 10:22:53;;;;;;;;;;;;;;;;;;;;;
2022/07/10 10:25:46;;;;;;;2.30;0.40;;;;;;;15.73;57.68;99181.98;108947;1281;23170;-86
2022/07/10 10:28:44;;;;;;;4.30;0.50;;;;;;;15.84;58.19;99179.45;108999;1280;22442;-87
2022/07/10 10:31:44;;;;;;;4.50;0.60;;;;;;;16.12;58.26;99181.75;109300;1281;22350;-88
2022/07/10 10:35:00;;;;;;;5.20;0.50;;;;;;;16.27;58.31;99178.90;109021;1281;22203;-89
2022/07/10 10:38:10;;;;;;;4.50;0.60;;;;;;;16.50;57.72;99180.69;108515;1286;22512;-90
2022/07/10 10:40:38;;;;;;;1.90;0.40;;;;;;;16.44;57.48;99178.48;108295;1287;22437;-90
2022/07/10 10:43:52;;;;;;;;;;;;;;;;;;;;;
2022/07/10 10:46:30;;;;;;;4.40;0.80;;;;;;;16.76;57.89;99175.67;108372;1286;22565;-89
2022/07/10 10:49:16;;;;;;;5.10;0.60;;;;;;;16.98;57.64;99174.98;108380;1286;22523;-90
2022/07/10 10:52:27;;;;;;;2.90;0.40;;;;;;;16.91;57.33;99174.64;108464;1287;22523;-91
2022/07/10 10:55:14;;;;;;;2.40;0.50;;;;;;;16.55;57.64;99180.03;108355;1286;22636;-87
2022/07/10 10:57:45;;;;;;;7.90;0.70;;;;;;;16.27;57.58;99181.75;108357;1287;22452;-88
2022/07/10 11:00:53;;;;;;;3.90;0.40;;;;;;;15.97;57.48;99182.35;108391;1287;22407;-88
2022/07/10 11:03:34;;;;;;;3.30;0.70;;;;;;;15.75;57.95;99188.35;108332;1287;22311;-85
2022/07/10 11:06:13;;;;;;;4.80;0.80;;;;;;;15.68;57.74;99185.92;108382;1287;23219;-89
2022/07/10 11:08:55;;;;;;;;;;;;;;;;;;;;;
2022/07/10 11:11:47;;;;;;;3.20;0.60;;;;;;;16.03;57.75;99187.37;108120;1287;22206;-85
2022/07/10 11:14:32;;;;;;;3.50;0.60;;;;;;;16.22;57.79;99186.73;108682;1280;22354;-85
2022/07/10 11:17:09;;;;;;;4.20;0.70;;;;;;;16.32;57.77;99181.67;108875;1281;22437;-84
2022/07/10 11:19:39;;;;;;;3.00;0.60;;;;;;;16.35;58.01;99178.80;109270;1281;22347;-85
2022/07/10 11:22:43;;;;;;;2.10;0.40;;;;;;;16.27;57.89;99184.61;108747;1281;22353;-85
2022/07/10 11:25:38;;;;;;;4.30;0.80;;;;;;;16.03;57.69;99188.31;108771;1282;22971;-86
2022/07/10 11:28:24;;;;;;;5.90;0.80;;;;;;;15.73;57.70;99189.26;109251;1281;22444;-87
2022/07/10 11:31:09;;;;;;;4.00;0.70;;;;;;;15.51;58.08;99196.33;108998;1281;23206;-84
2022/07/10 11:33:56;;;;;;;4.00;0.70;;;;;;;15.35;58.15;99193.78;109188;1281;22172;-84
2022/07/10 11:36:34;;;;;;;4.00;0.50;;;;;;;15.29;57.69;99194.13;109010;1281;22387;-82
2022/07/10 11:39:06;;;;;;;4.80;0.70;;;;;;;15.30;58.00;99188.63;109030;1281;22880;-83
2022/07/10 11:41:52;;;;;;;1.30;0.40;;;;;;;15.59;58.07;99182.96;108997;1281;23072;-84
2022/07/10 11:44:27;;;;;;;4.20;0.60;;;;;;;15.82;57.57;99183.12;109279;1281;22260;-84
2022/07/10 11:47:00;;;;;;;3.40;0.70;;;;;;;15.94;57.69;99184.44;109241;1279;23039;-82
2022/07/10 11:49:46;;;;;;;5.10;0.80;;;;;;;16.31;58.27;99183.50;109165;1281;22544;-88
2022/07/10 11:52:18;;;;;;;1.80;0.50;;;;;;;16.80;58.16;99182.36;109163;1281;22373;-84
2022/07/10 11:54:52;;;;;;;3.70;0.60;;;;;;;16.73;57.39;99191.80;109279;1280;22350;-83
2022/07/10 11:57:37;;;;;;;4.80;0.60;;;;;;;16.26;57.48;99199.08;109001;1279;22503;-86
2022/07/10 12:00:23;;;;;;;4.70;0.70;;;;;;;15.89;57.83;99202.04;108889;1281;23272;-84
2022/07/10 12:03:18;;;;;;;3.90;0.50;;;;;;;15.62;58.09;99209.83;109011;1281;22291;-83
2022/07/10 12:05:59;;;;;;;6.00;0.90;;;;;;;15.44;58.37;99208.21;108945;1281;22433;-84
2022/07/10 12:08:51;;;;;;;3.60;0.80;;;;;;;15.42;58.51;99205.11;108954;1281;22420;-83
2022/07/10 12:11:42;;;;;;;6.70;0.60;;;;;;;15.59;58.57;99203.31;108627;1281;22563;-84
2022/07/10 12:14:24;;;;;;;3.60;0.80;;;;;;;15.90;58.85;99200.70;108849;1281;22472;-86
2022/07/10 12:24:20;;;;;;;3.10;0.70;;;;;;;16.31;58.34;99188.52;109072;1280;22615;-84
2022/07/10 12:27:07;;;;;;;5.00;0.70;;;;;;;16.52;59.02;99191.96;108980;1281;22443;-84
2022/07/10 12:29:44;;;;;;;6.70;0.90;;;;;;;16.83;58.74;99185.45;108760;1281;23162;-85
2022/07/10 12:32:24;;;;;;;3.20;0.60;;;;;;;17.21;58.73;99188.39;109238;1280;22443;-87
2022/07/10 12:35:02;;;;;;;4.00;0.70;;;;;;;17.43;58.18;99190.55;109262;1280;23606;-87
2022/07/10 12:37:54;;;;;;;5.50;0.80;;;;;;;17.57;58.18;99184.73;108973;1281;22490;-86
2022/07/10 12:40:42;;;;;;;5.10;0.80;;;;;;;17.95;58.17;99186.64;108970;1281;22519;-85
2022/07/10 12:43:14;;;;;;;5.10;0.80;;;;;;;18.51;58.19;99184.69;109055;1281;22454;-85
2022/07/10 12:46:04;;;;;;;3.50;0.60;;;;;;;18.95;57.64;99169.57;108957;1281;22401;-87
2022/07/10 12:48:44;;;;;;;6.30;0.80;;;;;;;18.92;56.24;99172.36;109253;1281;22390;-86
2022/07/10 12:51:45;;;;;;;4.40;0.60;;;;;;;18.61;56.87;99166.77;108993;1281;23271;-86
2022/07/10 12:55:04;;;;;;;4.40;0.70;;;;;;;18.38;57.35;99171.16;109311;1280;22973;-85
2022/07/10 12:58:55;;;;;;;4.50;0.90;;;;;;;18.12;56.63;99177.71;109272;1280;22412;-86
2022/07/10 13:01:13;;;;;;;3.90;0.90;;;;;;;18.09;57.23;99170.97;108865;1280;22551;-85
2022/07/10 13:04:08;;;;;;;3.80;0.70;;;;;;;18.32;57.53;99163.50;108996;1281;22340;-85
2022/07/10 13:06:46;;;;;;;4.80;0.80;;;;;;;18.67;57.60;99161.69;109202;1281;22488;-85
2022/07/10 13:09:23;;;;;;;4.80;0.60;;;;;;;18.61;56.99;99162.44;109201;1281;22939;-86
2022/07/10 13:11:52;;;;;;;2.50;0.50;;;;;;;18.31;56.71;99171.64;108805;1281;22475;-88
2022/07/10 13:14:24;;;;;;;6.10;0.80;;;;;;;17.96;56.18;99176.85;108908;1281;22360;-86
2022/07/10 13:17:00;;;;;;;3.60;0.50;;;;;;;17.52;56.20;99179.25;108728;1282;22558;-87
2022/07/10 13:20:28;;;;;;;;;;;;;;;;;;;;;
2022/07/10 13:23:13;;;;;;;;;;;;;;;;;;;;;
2022/07/10 13:26:22;;;;;;;5.10;0.80;;;;;;;16.53;57.30;99191.02;108882;1281;22374;-91
2022/07/10 13:29:15;;;;;;;5.20;0.80;;;;;;;16.37;57.28;99190.17;109296;1281;22455;-85
2022/07/10 13:32:05;;;;;;;4.50;0.70;;;;;;;16.38;57.43;99193.17;109217;1281;23152;-85
2022/07/10 13:34:41;;;;;;;5.20;0.80;;;;;;;16.37;57.18;99189.85;109008;1279;23257;-85
2022/07/10 13:37:33;;;;;;;4.60;0.80;;;;;;;16.34;57.65;99189.00;109206;1280;22278;-85
2022/07/10 13:40:24;;;;;;;6.50;1.10;;;;;;;16.45;56.97;99203.79;108833;1281;22395;-85
2022/07/10 13:43:03;;;;;;;4.90;0.90;;;;;;;16.50;57.16;99182.80;109304;1280;22213;-87
2022/07/10 13:45:47;;;;;;;6.40;0.90;;;;;;;16.75;57.18;99179.63;109047;1280;22397;-85
2022/07/10 13:48:35;;;;;;;5.40;0.90;;;;;;;16.96;56.59;99172.98;109294;1279;22328;-88
2022/07/10 13:51:23;;;;;;;5.50;0.80;;;;;;;17.05;56.72;99175.06;108833;1281;23213;-90
2022/07/10 13:54:25;;;;;;;5.80;0.70;;;;;;;17.47;56.66;99176.48;109076;1281;22275;-86
2022/07/10 13:57:54;;;;;;;3.70;0.60;;;;;;;18.12;57.14;99171.79;109062;1279;22504;-87
2022/07/10 14:00:58;;;;;;;3.90;0.50;;;;;;;18.17;55.61;99176.52;109288;1280;23397;-89
2022/07/10 14:04:06;;;;;;;3.00;0.60;;;;;;;17.90;55.87;99173.52;109060;1280;22441;-87
2022/07/10 14:07:02;;;;;;;6.30;0.90;;;;;;;17.86;55.68;99175.75;108721;1283;23080;-87
2022/07/10 14:10:47;;;;;;;5.30;0.80;;;;;;;17.75;55.68;99171.95;108691;1284;22461;-88
2022/07/10 14:13:39;;;;;;;;;;;;;;;;;;;;;